Time;durP1;ratioP1;P1;durP2;ratioP2;P2;SDS_P1;SDS_P2;PMS_P1;PMS_P2;Temp;Humidity;BMP_temperature;BMP_pressure;BME280_temperature;BME280_humidity;BME280_pressure;Samples;Min_cycle;Max_cycle;Signal;HPM_P1;HPM_P2
2021/09/20 00:00:14;;;;;;;6.30;3.03;;;;;;;;;;5013428;28;20069;-50
2021/09/20 00:02:41;;;;;;;6.38;2.70;;;;;;;;;;5018628;28;20042;-51
2021/09/20 00:05:09;;;;;;;6.10;2.80;;;;;;;;;;5042694;28;20037;-51
2021/09/20 00:07:36;;;;;;;8.27;2.60;;;;;;;;;;5033109;28;20034;-51
2021/09/20 00:10:02;;;;;;;6.45;2.95;;;;;;;;;;5023846;28;20049;-54
2021/09/20 00:12:29;;;;;;;7.93;3.17;;;;;;;;;;5038652;28;20044;-56
2021/09/20 00:14:57;;;;;;;7.45;3.35;;;;;;;;;;5059981;28;20048;-50
2021/09/20 00:17:23;;;;;;;7.30;3.00;;;;;;;;;;5056044;28;20040;-52
2021/09/20 00:19:50;;;;;;;5.95;2.55;;;;;;;;;;5042895;28;20166;-53
2021/09/20 00:22:16;;;;;;;6.65;2.80;;;;;;;;;;5040309;28;20040;-49
2021/09/20 00:24:45;;;;;;;7.57;3.13;;;;;;;;;;5025710;28;20123;-51
2021/09/20 00:27:12;;;;;;;7.45;3.08;;;;;;;;;;5059123;28;20033;-50
2021/09/20 00:29:39;;;;;;;8.23;2.90;;;;;;;;;;5024880;28;20059;-56
2021/09/20 00:32:07;;;;;;;5.55;2.65;;;;;;;;;;5026311;28;20052;-51
2021/09/20 00:34:33;;;;;;;6.25;2.65;;;;;;;;;;5040853;28;20122;-51
2021/09/20 00:37:00;;;;;;;7.22;3.00;;;;;;;;;;5026248;28;20164;-52
2021/09/20 00:39:26;;;;;;;7.15;3.20;;;;;;;;;;5022137;28;20045;-49
2021/09/20 00:41:53;;;;;;;6.70;2.90;;;;;;;;;;5039127;28;20126;-50
2021/09/20 00:44:19;;;;;;;7.57;3.10;;;;;;;;;;5059122;28;20047;-50
2021/09/20 00:46:46;;;;;;;5.97;3.08;;;;;;;;;;5063161;28;20182;-53
2021/09/20 00:49:14;;;;;;;7.35;3.45;;;;;;;;;;5048577;28;20066;-49
2021/09/20 00:51:40;;;;;;;9.15;3.53;;;;;;;;;;5025835;28;20041;-48
2021/09/20 00:54:08;;;;;;;7.35;3.03;;;;;;;;;;5030640;28;20063;-49
2021/09/20 00:56:35;;;;;;;7.57;3.25;;;;;;;;;;5045271;28;20053;-51
2021/09/20 00:59:01;;;;;;;6.55;2.72;;;;;;;;;;5036914;28;20049;-52
2021/09/20 01:01:28;;;;;;;8.43;3.05;;;;;;;;;;5027381;28;20132;-48
2021/09/20 01:03:54;;;;;;;6.78;3.00;;;;;;;;;;5026161;28;20037;-48
2021/09/20 01:06:22;;;;;;;8.05;2.85;;;;;;;;;;5063296;28;20041;-50
2021/09/20 01:08:49;;;;;;;7.30;2.88;;;;;;;;;;5060865;28;20114;-49
2021/09/20 01:11:16;;;;;;;6.00;2.95;;;;;;;;;;5042096;28;20037;-52
2021/09/20 01:13:42;;;;;;;6.63;3.13;;;;;;;;;;5045502;28;20033;-51
2021/09/20 01:16:09;;;;;;;5.50;2.80;;;;;;;;;;5024788;28;20045;-48
2021/09/20 01:18:35;;;;;;;8.00;2.95;;;;;;;;;;5025954;28;20064;-53
2021/09/20 01:21:02;;;;;;;6.18;2.72;;;;;;;;;;5036376;28;20052;-50
2021/09/20 01:23:30;;;;;;;8.32;3.17;;;;;;;;;;5044993;28;20047;-52
2021/09/20 01:25:57;;;;;;;7.75;3.42;;;;;;;;;;5041716;28;20045;-51
2021/09/20 01:28:24;;;;;;;6.38;2.60;;;;;;;;;;5045937;28;20048;-53
2021/09/20 01:30:50;;;;;;;8.52;3.25;;;;;;;;;;5031942;28;20107;-49
2021/09/20 01:33:18;;;;;;;6.30;2.78;;;;;;;;;;5026240;28;20099;-50
2021/09/20 01:35:44;;;;;;;8.20;3.13;;;;;;;;;;5046411;28;20045;-48
2021/09/20 01:38:11;;;;;;;6.53;2.83;;;;;;;;;;5046969;28;20033;-49
2021/09/20 01:40:39;;;;;;;6.20;2.85;;;;;;;;;;5043557;28;20113;-50
2021/09/20 01:43:07;;;;;;;6.85;2.80;;;;;;;;;;5064177;28;20055;-55
2021/09/20 01:45:34;;;;;;;6.93;3.05;;;;;;;;;;5043073;28;20149;-52
2021/09/20 01:48:00;;;;;;;8.98;3.00;;;;;;;;;;5044502;28;20037;-53
2021/09/20 01:50:28;;;;;;;9.18;3.10;;;;;;;;;;5044773;28;20033;-52
2021/09/20 01:52:54;;;;;;;6.97;3.10;;;;;;;;;;5041251;28;20142;-51
2021/09/20 01:55:21;;;;;;;8.02;3.15;;;;;;;;;;5024164;28;20033;-47
2021/09/20 01:57:49;;;;;;;5.80;2.83;;;;;;;;;;5056619;28;20117;-53
2021/09/20 02:00:17;;;;;;;6.28;3.17;;;;;;;;;;5061503;28;20033;-54
2021/09/20 02:02:43;;;;;;;6.40;2.70;;;;;;;;;;5058379;28;20040;-50
2021/09/20 02:05:11;;;;;;;8.80;2.85;;;;;;;;;;5046308;28;20041;-51
2021/09/20 02:07:37;;;;;;;10.43;3.13;;;;;;;;;;5040298;28;20033;-53
2021/09/20 02:10:05;;;;;;;7.25;3.20;;;;;;;;;;5044788;28;20041;-52
2021/09/20 02:12:31;;;;;;;5.15;2.67;;;;;;;;;;5039236;28;20044;-51
2021/09/20 02:14:59;;;;;;;7.13;3.08;;;;;;;;;;5060444;28;20126;-54
2021/09/20 02:17:25;;;;;;;7.07;2.90;;;;;;;;;;5057642;28;20133;-51
2021/09/20 02:19:52;;;;;;;6.90;2.97;;;;;;;;;;5043151;28;20080;-50
2021/09/20 02:22:18;;;;;;;6.50;3.00;;;;;;;;;;5040271;28;20036;-53
2021/09/20 02:24:52;;;;;;;11.88;3.35;;;;;;;;;;5061187;28;20052;-53
2021/09/20 02:27:19;;;;;;;7.40;2.80;;;;;;;;;;5056040;28;20049;-53
2021/09/20 02:29:45;;;;;;;5.88;2.65;;;;;;;;;;5024437;28;20073;-53
2021/09/20 02:32:13;;;;;;;7.43;3.13;;;;;;;;;;5039602;28;20052;-54
2021/09/20 02:34:40;;;;;;;7.60;3.13;;;;;;;;;;5045910;28;20037;-52
2021/09/20 02:37:06;;;;;;;8.05;3.00;;;;;;;;;;5044867;28;20048;-54
2021/09/20 02:39:33;;;;;;;8.90;2.92;;;;;;;;;;5025406;28;20053;-52
2021/09/20 02:41:59;;;;;;;5.57;2.85;;;;;;;;;;5057544;28;20098;-49
2021/09/20 02:44:28;;;;;;;8.05;2.92;;;;;;;;;;5040933;28;20076;-51
2021/09/20 02:46:54;;;;;;;8.23;3.08;;;;;;;;;;5024130;28;20115;-55
2021/09/20 02:49:22;;;;;;;7.53;3.08;;;;;;;;;;5031889;28;20134;-53
2021/09/20 02:51:49;;;;;;;6.13;3.03;;;;;;;;;;5042624;28;20034;-54
2021/09/20 02:54:15;;;;;;;6.28;2.75;;;;;;;;;;5022820;28;20048;-53
2021/09/20 02:56:42;;;;;;;12.70;3.10;;;;;;;;;;5040663;28;20056;-50
2021/09/20 02:59:08;;;;;;;7.45;2.95;;;;;;;;;;5030662;28;20075;-51
2021/09/20 03:01:35;;;;;;;6.30;3.00;;;;;;;;;;5046234;28;20098;-51
2021/09/20 03:04:01;;;;;;;8.80;2.80;;;;;;;;;;5035989;28;20037;-50
2021/09/20 03:06:29;;;;;;;6.53;2.95;;;;;;;;;;5025762;28;20041;-48
2021/09/20 03:08:56;;;;;;;8.33;2.90;;;;;;;;;;5025149;28;20060;-52
2021/09/20 03:11:23;;;;;;;6.45;3.05;;;;;;;;;;5046045;28;20049;-48
2021/09/20 03:13:52;;;;;;;7.90;2.85;;;;;;;;;;5060300;28;20048;-52
2021/09/20 03:16:19;;;;;;;7.00;3.08;;;;;;;;;;5064491;28;20032;-49
2021/09/20 03:18:45;;;;;;;7.30;3.22;;;;;;;;;;5063722;28;20118;-52
2021/09/20 03:21:12;;;;;;;6.00;2.75;;;;;;;;;;5038218;28;20065;-53
2021/09/20 03:23:42;;;;;;;6.35;3.00;;;;;;;;;;5024644;28;20048;-51
2021/09/20 03:26:08;;;;;;;7.00;2.92;;;;;;;;;;5021147;28;20053;-53
2021/09/20 03:28:35;;;;;;;6.60;2.92;;;;;;;;;;5042339;28;20041;-53
2021/09/20 03:31:01;;;;;;;9.00;2.85;;;;;;;;;;5050729;28;20041;-54
2021/09/20 03:33:28;;;;;;;8.85;2.83;;;;;;;;;;5039810;28;20045;-50
2021/09/20 03:35:54;;;;;;;7.40;3.45;;;;;;;;;;5048959;28;20040;-49
2021/09/20 03:38:21;;;;;;;7.13;3.22;;;;;;;;;;5043739;28;20071;-53
2021/09/20 03:40:50;;;;;;;5.90;2.83;;;;;;;;;;5040518;28;20037;-51
2021/09/20 03:43:16;;;;;;;8.70;3.00;;;;;;;;;;5043508;28;20253;-53
2021/09/20 03:45:43;;;;;;;7.75;3.00;;;;;;;;;;5039435;28;20041;-53
2021/09/20 03:48:09;;;;;;;7.03;3.17;;;;;;;;;;5061456;28;20044;-51
2021/09/20 03:50:36;;;;;;;9.90;2.75;;;;;;;;;;5058447;28;20044;-52
2021/09/20 03:53:02;;;;;;;8.05;3.20;;;;;;;;;;5060676;28;20033;-54
2021/09/20 03:55:29;;;;;;;13.00;3.50;;;;;;;;;;5055804;28;20113;-48
2021/09/20 03:57:57;;;;;;;7.47;3.28;;;;;;;;;;5022671;28;20089;-50
2021/09/20 04:00:23;;;;;;;7.97;3.13;;;;;;;;;;5026285;28;20044;-49
2021/09/20 04:02:50;;;;;;;7.20;3.13;;;;;;;;;;5060484;28;20077;-54
2021/09/20 04:05:16;;;;;;;7.78;3.47;;;;;;;;;;5058165;28;20041;-50
2021/09/20 04:07:43;;;;;;;5.70;2.53;;;;;;;;;;5035931;28;20036;-52
2021/09/20 04:10:11;;;;;;;9.50;3.58;;;;;;;;;;5022289;28;20120;-47
2021/09/20 04:12:37;;;;;;;7.90;3.45;;;;;;;;;;5034792;28;20060;-53
2021/09/20 04:15:05;;;;;;;6.57;3.20;;;;;;;;;;5043368;28;20122;-50
2021/09/20 04:17:32;;;;;;;9.00;3.85;;;;;;;;;;5037479;28;20045;-46
2021/09/20 04:19:58;;;;;;;7.32;3.33;;;;;;;;;;5043573;28;20081;-51
2021/09/20 04:22:25;;;;;;;7.70;3.30;;;;;;;;;;5036004;28;20026;-52
2021/09/20 04:24:51;;;;;;;8.18;3.75;;;;;;;;;;5023263;28;20045;-50
2021/09/20 04:27:20;;;;;;;8.52;3.50;;;;;;;;;;5025422;28;20333;-48
2021/09/20 04:29:46;;;;;;;9.50;3.75;;;;;;;;;;5041618;28;20034;-51
2021/09/20 04:32:14;;;;;;;8.25;3.25;;;;;;;;;;5037514;28;20048;-49
2021/09/20 04:34:41;;;;;;;9.77;4.30;;;;;;;;;;5043046;28;20041;-50
2021/09/20 04:37:07;;;;;;;8.85;3.80;;;;;;;;;;5038430;28;20040;-48
2021/09/20 04:39:34;;;;;;;11.70;3.72;;;;;;;;;;5043100;28;20045;-53
2021/09/20 04:42:02;;;;;;;13.25;3.90;;;;;;;;;;5042047;28;20041;-50
2021/09/20 04:44:29;;;;;;;10.55;3.80;;;;;;;;;;5039958;28;20059;-49
2021/09/20 04:46:55;;;;;;;8.90;3.75;;;;;;;;;;5042430;28;20096;-47
2021/09/20 04:49:26;;;;;;;7.85;3.55;;;;;;;;;;5057777;28;20033;-47
2021/09/20 04:51:52;;;;;;;11.80;3.95;;;;;;;;;;5044709;28;20041;-48
2021/09/20 04:54:19;;;;;;;9.32;4.15;;;;;;;;;;5034727;28;20042;-50
2021/09/20 04:56:47;;;;;;;8.90;4.13;;;;;;;;;;5022280;28;20054;-51
2021/09/20 04:59:13;;;;;;;8.55;3.65;;;;;;;;;;5031563;28;20033;-52
2021/09/20 05:01:40;;;;;;;8.00;3.45;;;;;;;;;;5039444;28;20107;-54
2021/09/20 05:04:09;;;;;;;7.88;3.50;;;;;;;;;;5037608;28;20041;-51
2021/09/20 05:06:39;;;;;;;8.05;3.83;;;;;;;;;;5041587;28;20048;-46
2021/09/20 05:09:07;;;;;;;12.65;5.47;;;;;;;;;;5037693;28;20042;-47
2021/09/20 05:11:34;;;;;;;11.97;4.87;;;;;;;;;;5059605;28;20029;-48
2021/09/20 05:14:01;;;;;;;10.90;4.47;;;;;;;;;;5039795;28;20122;-49
2021/09/20 05:16:27;;;;;;;9.32;3.65;;;;;;;;;;5042466;28;20060;-49
2021/09/20 05:18:54;;;;;;;8.93;4.00;;;;;;;;;;5037270;28;20649;-54
2021/09/20 05:21:20;;;;;;;9.30;4.10;;;;;;;;;;5048899;28;20073;-49
2021/09/20 05:23:50;;;;;;;9.38;4.47;;;;;;;;;;5048224;28;20037;-52
2021/09/20 05:26:16;;;;;;;13.63;4.32;;;;;;;;;;5046149;28;20041;-53
2021/09/20 05:28:43;;;;;;;9.18;4.05;;;;;;;;;;5051907;28;20110;-48
2021/09/20 05:31:09;;;;;;;9.18;4.13;;;;;;;;;;5042649;28;20051;-50
2021/09/20 05:33:37;;;;;;;14.00;3.92;;;;;;;;;;5042995;28;20114;-51
2021/09/20 05:36:04;;;;;;;8.48;3.92;;;;;;;;;;5042382;28;20049;-51
2021/09/20 05:38:30;;;;;;;8.90;3.92;;;;;;;;;;5050551;28;20041;-51
2021/09/20 05:40:58;;;;;;;11.25;4.65;;;;;;;;;;5048503;28;20041;-48
2021/09/20 05:43:25;;;;;;;9.18;4.20;;;;;;;;;;5048653;28;20029;-51
2021/09/20 05:45:52;;;;;;;10.55;4.43;;;;;;;;;;5046692;28;20158;-49
2021/09/20 05:48:20;;;;;;;9.60;4.05;;;;;;;;;;5052225;28;20053;-51
2021/09/20 05:50:47;;;;;;;9.50;4.03;;;;;;;;;;5044068;28;20049;-50
2021/09/20 05:53:14;;;;;;;10.73;3.78;;;;;;;;;;5047444;28;20044;-51
2021/09/20 05:55:41;;;;;;;11.43;4.57;;;;;;;;;;5046193;28;20051;-52
2021/09/20 05:58:09;;;;;;;11.52;4.43;;;;;;;;;;5046837;28;20052;-49
2021/09/20 06:00:36;;;;;;;10.48;4.38;;;;;;;;;;5047591;28;20214;-50
2021/09/20 06:03:03;;;;;;;11.70;4.82;;;;;;;;;;5046232;28;20084;-48
2021/09/20 06:05:37;;;;;;;10.88;4.18;;;;;;;;;;5044554;28;20122;-47
2021/09/20 06:08:04;;;;;;;9.27;4.60;;;;;;;;;;5040127;28;20029;-53
2021/09/20 06:10:31;;;;;;;9.05;4.40;;;;;;;;;;5041658;28;20041;-49
2021/09/20 06:12:57;;;;;;;8.63;4.03;;;;;;;;;;5038902;28;20048;-47
2021/09/20 06:15:25;;;;;;;11.68;4.45;;;;;;;;;;5058964;28;20033;-49
2021/09/20 06:17:53;;;;;;;10.43;4.20;;;;;;;;;;5039175;28;20033;-48
2021/09/20 06:20:20;;;;;;;9.55;4.30;;;;;;;;;;5057677;28;20074;-47
2021/09/20 06:22:51;;;;;;;9.63;4.68;;;;;;;;;;5038227;28;20052;-46
2021/09/20 06:25:18;;;;;;;8.90;3.90;;;;;;;;;;5042686;28;20056;-49
2021/09/20 06:27:45;;;;;;;10.77;4.40;;;;;;;;;;5038162;28;20047;-47
2021/09/20 06:30:12;;;;;;;10.88;3.95;;;;;;;;;;5042440;28;20030;-47
2021/09/20 06:32:40;;;;;;;11.23;4.82;;;;;;;;;;5037172;28;20037;-50
2021/09/20 06:35:09;;;;;;;9.93;4.70;;;;;;;;;;5041453;28;20041;-52
2021/09/20 06:37:36;;;;;;;9.70;4.30;;;;;;;;;;5033951;28;20045;-49
2021/09/20 06:40:03;;;;;;;11.82;4.43;;;;;;;;;;5021607;28;20045;-52
2021/09/20 06:42:30;;;;;;;13.23;6.15;;;;;;;;;;5051830;28;20033;-50
2021/09/20 06:44:56;;;;;;;13.68;4.50;;;;;;;;;;5040226;28;20071;-50
2021/09/20 06:47:23;;;;;;;11.75;4.20;;;;;;;;;;5037777;28;20048;-51
2021/09/20 06:49:51;;;;;;;11.20;4.63;;;;;;;;;;5041348;28;20038;-50
2021/09/20 06:52:18;;;;;;;10.13;4.35;;;;;;;;;;5037131;28;20041;-48
2021/09/20 06:54:45;;;;;;;11.98;4.78;;;;;;;;;;5042543;28;20049;-48
2021/09/20 06:57:12;;;;;;;11.68;4.47;;;;;;;;;;5040250;28;20045;-49
2021/09/20 06:59:38;;;;;;;8.65;4.47;;;;;;;;;;5029546;28;20038;-47
2021/09/20 07:02:05;;;;;;;11.68;5.15;;;;;;;;;;5041300;28;20522;-46
2021/09/20 07:04:32;;;;;;;8.95;4.25;;;;;;;;;;5043782;28;20041;-51
2021/09/20 07:07:00;;;;;;;10.93;5.15;;;;;;;;;;5058961;28;20113;-49
2021/09/20 07:09:27;;;;;;;10.07;4.50;;;;;;;;;;5053378;28;20029;-50
2021/09/20 07:11:53;;;;;;;10.27;4.50;;;;;;;;;;5045618;28;20119;-50
2021/09/20 07:14:20;;;;;;;9.80;4.88;;;;;;;;;;5019893;28;20065;-49
2021/09/20 07:16:47;;;;;;;13.18;4.68;;;;;;;;;;5020257;28;20060;-50
2021/09/20 07:19:13;;;;;;;9.32;4.53;;;;;;;;;;5011201;28;20181;-54
2021/09/20 07:21:40;;;;;;;12.43;4.53;;;;;;;;;;5020174;28;20085;-48
2021/09/20 07:24:13;;;;;;;10.07;4.45;;;;;;;;;;5024755;28;20045;-48
2021/09/20 07:26:40;;;;;;;10.43;3.90;;;;;;;;;;5056995;28;20048;-47
2021/09/20 07:29:06;;;;;;;12.60;5.22;;;;;;;;;;5035132;28;20345;-50
2021/09/20 07:31:35;;;;;;;12.65;5.20;;;;;;;;;;5055922;28;20052;-50
2021/09/20 07:34:02;;;;;;;13.77;4.60;;;;;;;;;;5023867;28;20070;-52
2021/09/20 07:36:29;;;;;;;7.68;3.85;;;;;;;;;;5063477;28;20057;-54
2021/09/20 07:38:56;;;;;;;15.13;4.80;;;;;;;;;;5062541;28;20037;-48
2021/09/20 07:41:24;;;;;;;10.90;4.15;;;;;;;;;;5047285;28;20091;-49
2021/09/20 07:43:52;;;;;;;11.87;4.20;;;;;;;;;;5062791;28;20037;-52
2021/09/20 07:46:19;;;;;;;9.85;4.57;;;;;;;;;;5046192;28;20038;-50
2021/09/20 07:48:46;;;;;;;7.90;3.90;;;;;;;;;;5027472;28;20064;-47
2021/09/20 07:51:13;;;;;;;8.18;4.25;;;;;;;;;;5024061;28;20048;-50
2021/09/20 07:53:41;;;;;;;9.82;4.40;;;;;;;;;;5027539;28;20033;-52
2021/09/20 07:56:07;;;;;;;9.90;3.67;;;;;;;;;;5036577;28;20127;-53
2021/09/20 07:58:35;;;;;;;8.68;4.30;;;;;;;;;;5049008;28;20055;-49
2021/09/20 08:01:02;;;;;;;12.53;4.80;;;;;;;;;;5047485;28;20665;-53
2021/09/20 08:03:28;;;;;;;11.25;4.55;;;;;;;;;;5013365;28;20100;-46
2021/09/20 08:05:55;;;;;;;9.07;4.47;;;;;;;;;;5036965;28;20046;-53
2021/09/20 08:08:22;;;;;;;9.48;4.30;;;;;;;;;;5027250;28;20037;-52
2021/09/20 08:10:48;;;;;;;9.52;3.83;;;;;;;;;;5027822;28;20049;-49
2021/09/20 08:13:16;;;;;;;10.10;5.00;;;;;;;;;;5045373;28;20041;-50
2021/09/20 08:15:45;;;;;;;9.85;4.97;;;;;;;;;;5043294;28;20052;-52
2021/09/20 08:18:11;;;;;;;9.93;4.80;;;;;;;;;;5026103;28;20050;-54
2021/09/20 08:20:38;;;;;;;10.40;4.80;;;;;;;;;;5025234;28;20123;-52
2021/09/20 08:23:04;;;;;;;10.98;4.88;;;;;;;;;;5045457;28;20033;-51
2021/09/20 08:25:33;;;;;;;8.52;4.35;;;;;;;;;;5044954;28;20064;-50
2021/09/20 08:27:59;;;;;;;10.48;4.80;;;;;;;;;;5041578;28;20041;-46
2021/09/20 08:30:26;;;;;;;10.52;5.05;;;;;;;;;;5046240;28;20045;-49
2021/09/20 08:32:56;;;;;;;9.85;5.00;;;;;;;;;;5059529;28;20055;-50
2021/09/20 08:35:22;;;;;;;13.88;5.30;;;;;;;;;;5046650;28;20065;-50
2021/09/20 08:37:49;;;;;;;9.70;5.13;;;;;;;;;;5021055;28;20045;-53
2021/09/20 08:40:16;;;;;;;8.70;4.15;;;;;;;;;;5026259;28;20041;-50
2021/09/20 08:42:44;;;;;;;12.35;4.28;;;;;;;;;;5031126;28;20038;-49
2021/09/20 08:45:12;;;;;;;8.25;4.43;;;;;;;;;;5023357;28;20045;-50
2021/09/20 08:47:40;;;;;;;9.80;4.60;;;;;;;;;;5026851;28;20037;-52
2021/09/20 08:50:10;;;;;;;9.77;4.75;;;;;;;;;;5040389;28;20049;-47
2021/09/20 08:52:36;;;;;;;9.75;4.28;;;;;;;;;;5049556;28;20044;-47
2021/09/20 08:55:03;;;;;;;9.48;4.60;;;;;;;;;;5023704;28;20049;-53
2021/09/20 08:57:30;;;;;;;8.10;4.10;;;;;;;;;;5025319;28;20081;-52
2021/09/20 08:59:59;;;;;;;8.25;4.03;;;;;;;;;;5042550;28;20030;-52
2021/09/20 09:02:26;;;;;;;12.88;4.65;;;;;;;;;;5037825;28;20041;-52
2021/09/20 09:04:52;;;;;;;11.05;4.50;;;;;;;;;;5043661;28;20045;-51
2021/09/20 09:07:21;;;;;;;8.48;4.53;;;;;;;;;;5041625;28;20049;-54
2021/09/20 09:09:48;;;;;;;7.78;3.88;;;;;;;;;;5040507;28;20064;-50
2021/09/20 09:12:17;;;;;;;9.70;4.53;;;;;;;;;;5039600;28;20053;-52
2021/09/20 09:14:45;;;;;;;8.98;4.22;;;;;;;;;;5026383;28;20045;-54
2021/09/20 09:17:14;;;;;;;11.05;3.92;;;;;;;;;;5025314;28;20041;-53
2021/09/20 09:19:49;;;;;;;9.23;4.55;;;;;;;;;;5038402;28;20045;-50
2021/09/20 09:22:15;;;;;;;12.93;4.22;;;;;;;;;;5025796;28;20168;-50
2021/09/20 09:25:01;;;;;;;8.48;3.58;;;;;;;;;;5021401;28;20041;-51
2021/09/20 09:27:28;;;;;;;10.20;4.03;;;;;;;;;;5025506;28;20037;-51
2021/09/20 09:30:03;;;;;;;10.50;4.25;;;;;;;;;;5007891;28;20053;-49
2021/09/20 09:32:30;;;;;;;10.70;4.68;;;;;;;;;;5024569;28;20049;-53
2021/09/20 09:34:58;;;;;;;8.38;3.67;;;;;;;;;;5031647;28;20094;-52
2021/09/20 09:37:25;;;;;;;11.95;3.60;;;;;;;;;;5025871;28;20065;-49
2021/09/20 09:40:04;;;;;;;8.57;3.90;;;;;;;;;;5038754;28;20130;-54
2021/09/20 09:42:32;;;;;;;10.13;4.32;;;;;;;;;;5025182;28;20139;-57
2021/09/20 09:45:01;;;;;;;8.60;3.70;;;;;;;;;;5018743;28;20119;-51
2021/09/20 09:47:27;;;;;;;;;;;;;;;;;;5020581;28;20085;-54
2021/09/20 09:50:15;;;;;;;7.35;3.45;;;;;;;;;;5023703;28;19921;-55
2021/09/20 09:52:42;;;;;;;7.70;4.03;;;;;;;;;;5025074;28;20060;-51
2021/09/20 09:55:10;;;;;;;8.43;3.55;;;;;;;;;;5014980;28;20038;-51
2021/09/20 09:57:38;;;;;;;9.77;3.40;;;;;;;;;;5018883;28;20049;-49
2021/09/20 10:00:05;;;;;;;9.33;4.03;;;;;;;;;;5003133;28;20034;-56
2021/09/20 10:02:33;;;;;;;9.80;3.90;;;;;;;;;;5005549;28;20341;-49
2021/09/20 10:05:00;;;;;;;10.45;3.88;;;;;;;;;;5002754;28;20309;-52
2021/09/20 10:07:27;;;;;;;6.97;3.22;;;;;;;;;;5021282;28;20054;-51
2021/09/20 10:09:55;;;;;;;7.60;3.25;;;;;;;;;;5002245;28;20050;-54
2021/09/20 10:12:25;;;;;;;9.45;3.85;;;;;;;;;;5022311;28;20045;-52
2021/09/20 10:14:55;;;;;;;9.18;3.85;;;;;;;;;;5033501;28;20085;-54
2021/09/20 10:17:22;;;;;;;7.72;3.50;;;;;;;;;;5021421;28;20060;-51
2021/09/20 10:19:48;;;;;;;7.13;3.67;;;;;;;;;;5024687;28;20103;-52
2021/09/20 10:22:15;;;;;;;7.30;3.65;;;;;;;;;;5039127;28;20078;-50
2021/09/20 10:24:43;;;;;;;5.15;2.40;;;;;;;;;;5025542;28;20037;-54
2021/09/20 10:27:11;;;;;;;9.38;2.83;;;;;;;;;;5038357;28;20130;-53
2021/09/20 10:29:38;;;;;;;9.10;3.38;;;;;;;;;;5025373;28;20033;-50
2021/09/20 10:32:07;;;;;;;8.60;2.75;;;;;;;;;;5010279;28;20119;-52
2021/09/20 10:34:33;;;;;;;7.68;3.10;;;;;;;;;;5021016;28;20041;-51
2021/09/20 10:37:06;;;;;;;10.57;3.40;;;;;;;;;;5002141;28;20037;-48
2021/09/20 10:39:46;;;;;;;7.10;3.17;;;;;;;;;;5016985;28;20120;-53
2021/09/20 10:42:33;;;;;;;6.85;2.67;;;;;;;;;;5019355;28;20037;-53
2021/09/20 10:44:59;;;;;;;7.30;3.72;;;;;;;;;;5041128;28;20040;-53
2021/09/20 10:47:40;;;;;;;13.50;3.60;;;;;;;;;;5040338;28;20060;-51
2021/09/20 10:50:07;;;;;;;7.68;3.50;;;;;;;;;;5043825;28;20045;-50
2021/09/20 10:52:35;;;;;;;6.05;2.67;;;;;;;;;;5030901;28;20040;-51
2021/09/20 10:55:03;;;;;;;9.10;3.78;;;;;;;;;;5024468;28;20048;-56
2021/09/20 10:57:29;;;;;;;6.57;2.65;;;;;;;;;;5021765;28;20037;-50
2021/09/20 11:00:10;;;;;;;10.13;3.55;;;;;;;;;;5024414;28;20041;-54
2021/09/20 11:02:38;;;;;;;7.78;3.70;;;;;;;;;;5012531;28;20059;-49
2021/09/20 11:05:06;;;;;;;5.55;3.03;;;;;;;;;;5004378;28;20030;-53
2021/09/20 11:07:43;;;;;;;7.68;3.47;;;;;;;;;;5003824;28;20042;-54
2021/09/20 11:10:10;;;;;;;7.63;3.30;;;;;;;;;;5021765;28;20058;-54
2021/09/20 11:12:51;;;;;;;8.15;3.65;;;;;;;;;;5036065;28;20172;-52
2021/09/20 11:15:19;;;;;;;11.60;3.95;;;;;;;;;;5020108;28;20053;-53
2021/09/20 11:17:51;;;;;;;11.57;3.85;;;;;;;;;;5017992;28;20053;-51
2021/09/20 11:20:20;;;;;;;8.73;3.75;;;;;;;;;;5021272;28;20036;-56
2021/09/20 11:22:46;;;;;;;6.45;3.30;;;;;;;;;;5018849;28;20048;-54
2021/09/20 11:25:15;;;;;;;9.27;3.45;;;;;;;;;;5020215;28;20080;-54
2021/09/20 11:27:43;;;;;;;6.40;3.40;;;;;;;;;;5020624;28;20123;-56
2021/09/20 11:30:12;;;;;;;8.75;3.38;;;;;;;;;;5014625;28;20078;-54
2021/09/20 11:32:48;;;;;;;8.18;3.70;;;;;;;;;;5000048;28;20124;-55
2021/09/20 11:35:16;;;;;;;7.95;3.63;;;;;;;;;;5015642;28;20078;-53
2021/09/20 11:37:43;;;;;;;7.45;3.30;;;;;;;;;;5019661;28;20115;-55
2021/09/20 11:40:11;;;;;;;7.88;3.40;;;;;;;;;;5019544;28;20034;-57
2021/09/20 11:42:42;;;;;;;7.80;3.60;;;;;;;;;;5020938;28;20077;-55
2021/09/20 11:45:11;;;;;;;9.00;3.25;;;;;;;;;;5014760;28;20038;-55
2021/09/20 11:47:39;;;;;;;7.13;3.30;;;;;;;;;;5000392;28;20066;-54
2021/09/20 11:50:10;;;;;;;6.77;3.20;;;;;;;;;;5008295;28;20085;-53
2021/09/20 11:52:39;;;;;;;7.82;3.70;;;;;;;;;;5016864;28;20057;-56
2021/09/20 11:55:11;;;;;;;8.85;3.20;;;;;;;;;;5017541;28;20046;-54
2021/09/20 11:57:43;;;;;;;5.88;3.28;;;;;;;;;;5036688;28;20038;-56
2021/09/20 12:00:10;;;;;;;8.32;3.88;;;;;;;;;;5016039;28;20061;-51
2021/09/20 12:02:39;;;;;;;6.38;3.20;;;;;;;;;;5021182;28;20046;-54
2021/09/20 12:05:07;;;;;;;9.75;3.38;;;;;;;;;;5032061;28;20033;-52
2021/09/20 12:07:34;;;;;;;7.65;3.20;;;;;;;;;;5038273;28;20067;-54
2021/09/20 12:10:02;;;;;;;6.38;3.25;;;;;;;;;;5036364;28;20043;-55
2021/09/20 12:12:30;;;;;;;7.90;3.47;;;;;;;;;;5055737;28;20045;-55
2021/09/20 12:14:57;;;;;;;8.40;3.35;;;;;;;;;;5038269;28;20041;-54
2021/09/20 12:17:24;;;;;;;7.75;2.95;;;;;;;;;;5040180;28;20037;-54
2021/09/20 12:19:54;;;;;;;7.55;3.67;;;;;;;;;;5039153;28;20045;-57
2021/09/20 12:22:21;;;;;;;10.05;3.85;;;;;;;;;;5041213;28;20049;-54
2021/09/20 12:24:48;;;;;;;9.68;3.05;;;;;;;;;;5043365;28;20123;-53
2021/09/20 12:27:16;;;;;;;6.55;3.35;;;;;;;;;;5035171;28;20034;-50
2021/09/20 12:29:42;;;;;;;8.50;3.20;;;;;;;;;;5023285;28;20052;-54
2021/09/20 12:32:11;;;;;;;7.20;3.40;;;;;;;;;;5036475;28;20053;-56
2021/09/20 12:34:39;;;;;;;6.22;3.33;;;;;;;;;;5044782;28;20041;-51
2021/09/20 12:37:06;;;;;;;7.83;3.80;;;;;;;;;;5038412;28;20041;-55
2021/09/20 12:39:33;;;;;;;8.27;3.50;;;;;;;;;;5044362;28;20041;-52
2021/09/20 12:42:03;;;;;;;7.30;3.65;;;;;;;;;;5039366;28;20056;-56
2021/09/20 12:44:33;;;;;;;7.18;3.60;;;;;;;;;;5043449;28;20038;-51
2021/09/20 12:47:01;;;;;;;6.25;3.05;;;;;;;;;;5040703;28;20029;-52
2021/09/20 12:49:28;;;;;;;6.70;3.28;;;;;;;;;;5043543;28;20171;-51
2021/09/20 12:51:55;;;;;;;14.68;3.83;;;;;;;;;;5040729;28;20099;-52
2021/09/20 12:54:24;;;;;;;10.45;3.53;;;;;;;;;;5043204;28;20151;-54
2021/09/20 12:56:52;;;;;;;7.30;3.13;;;;;;;;;;5018898;28;20041;-52
2021/09/20 12:59:21;;;;;;;6.20;3.28;;;;;;;;;;5023734;28;20038;-52
2021/09/20 13:01:53;;;;;;;9.30;4.00;;;;;;;;;;5020658;28;20120;-52
2021/09/20 13:04:24;;;;;;;6.72;3.40;;;;;;;;;;5039481;28;20045;-56
2021/09/20 13:07:01;;;;;;;7.07;3.58;;;;;;;;;;5004418;28;20042;-55
2021/09/20 13:09:28;;;;;;;8.90;3.25;;;;;;;;;;5053224;28;20026;-52
2021/09/20 13:12:02;;;;;;;9.40;3.75;;;;;;;;;;5011259;28;20046;-55
2021/09/20 13:14:30;;;;;;;8.27;3.20;;;;;;;;;;5016675;28;20129;-54
2021/09/20 13:17:08;;;;;;;7.03;3.35;;;;;;;;;;4998524;28;20067;-54
2021/09/20 13:19:35;;;;;;;11.80;3.75;;;;;;;;;;5017879;28;20081;-53
2021/09/20 13:22:02;;;;;;;9.95;3.60;;;;;;;;;;5021114;28;20042;-52
2021/09/20 13:24:31;;;;;;;9.70;4.05;;;;;;;;;;5018067;28;20053;-54
2021/09/20 13:26:58;;;;;;;8.65;3.38;;;;;;;;;;5021380;28;20041;-55
2021/09/20 13:29:24;;;;;;;7.07;3.22;;;;;;;;;;5032462;28;20123;-50
2021/09/20 13:31:51;;;;;;;6.65;3.30;;;;;;;;;;5026917;28;20049;-54
2021/09/20 13:34:20;;;;;;;7.85;3.00;;;;;;;;;;5017713;28;20037;-54
2021/09/20 13:36:46;;;;;;;8.40;3.28;;;;;;;;;;5022022;28;20501;-51
2021/09/20 13:39:13;;;;;;;6.68;3.20;;;;;;;;;;5019472;28;20050;-55
2021/09/20 13:41:40;;;;;;;10.20;2.90;;;;;;;;;;5031755;28;20053;-51
2021/09/20 13:44:07;;;;;;;7.55;3.00;;;;;;;;;;5054869;28;20052;-53
2021/09/20 13:46:33;;;;;;;6.65;2.78;;;;;;;;;;5041965;28;20049;-53
2021/09/20 13:49:00;;;;;;;4.90;2.38;;;;;;;;;;5034874;28;20041;-53
2021/09/20 13:51:28;;;;;;;5.95;2.65;;;;;;;;;;5023184;28;20038;-51
2021/09/20 13:53:55;;;;;;;8.38;2.70;;;;;;;;;;5017779;28;20089;-53
2021/09/20 13:56:21;;;;;;;5.90;2.75;;;;;;;;;;5022037;28;20042;-53
2021/09/20 13:58:48;;;;;;;5.68;2.60;;;;;;;;;;5020189;28;20057;-56
2021/09/20 14:01:15;;;;;;;5.20;2.17;;;;;;;;;;5035143;28;20129;-56
2021/09/20 14:03:41;;;;;;;9.95;2.40;;;;;;;;;;5011789;28;20085;-57
2021/09/20 14:06:08;;;;;;;9.18;2.50;;;;;;;;;;5036481;28;20052;-55
2021/09/20 14:08:37;;;;;;;4.45;2.67;;;;;;;;;;5030268;28;20029;-52
2021/09/20 14:11:03;;;;;;;7.60;2.67;;;;;;;;;;5050807;28;20043;-53
2021/09/20 14:13:30;;;;;;;5.57;2.58;;;;;;;;;;5045621;28;20041;-53
2021/09/20 14:15:58;;;;;;;7.13;2.30;;;;;;;;;;5042567;28;20045;-55
2021/09/20 14:18:25;;;;;;;7.27;3.07;;;;;;;;;;5045664;28;20056;-51
2021/09/20 14:20:52;;;;;;;6.45;2.83;;;;;;;;;;5041889;28;20076;-57
2021/09/20 14:23:18;;;;;;;6.28;2.72;;;;;;;;;;5045448;28;20048;-51
2021/09/20 14:25:46;;;;;;;6.25;2.45;;;;;;;;;;5052476;28;20039;-56
2021/09/20 14:28:14;;;;;;;5.47;2.35;;;;;;;;;;5032798;28;20043;-55
2021/09/20 14:30:41;;;;;;;4.40;2.05;;;;;;;;;;5041228;28;20040;-51
2021/09/20 14:33:07;;;;;;;4.50;1.90;;;;;;;;;;5045294;28;20111;-49
2021/09/20 14:35:34;;;;;;;6.45;2.17;;;;;;;;;;5040962;28;20133;-53
2021/09/20 14:38:01;;;;;;;6.38;2.03;;;;;;;;;;5042736;28;20047;-54
2021/09/20 14:40:29;;;;;;;3.42;1.73;;;;;;;;;;5042435;28;20189;-55
2021/09/20 14:42:58;;;;;;;3.63;1.55;;;;;;;;;;5027820;28;20064;-55